createdAt,value
2018-12-03T00:01:27.749Z,79.73
2018-12-03T00:03:59.715Z,73.77
2018-12-03T00:06:28.277Z,75.13
2018-12-03T00:08:56.848Z,76.03
2018-12-03T00:11:25.388Z,74.83
2018-12-03T00:13:53.826Z,73.53
2018-12-03T00:16:22.317Z,75.97
2018-12-03T00:18:51.022Z,80.20
2018-12-03T00:21:19.601Z,76.03
2018-12-03T00:23:48.123Z,79.30
2018-12-03T00:26:16.731Z,77.73
2018-12-03T00:28:45.292Z,74.00
2018-12-03T00:31:13.845Z,71.63
2018-12-03T00:33:42.399Z,75.53
2018-12-03T00:36:10.911Z,79.83
2018-12-03T00:38:39.474Z,81.33
2018-12-03T00:41:08.023Z,75.67
2018-12-03T00:43:36.687Z,75.73
2018-12-03T00:46:05.259Z,73.93
2018-12-03T00:48:33.750Z,78.47
2018-12-03T00:51:02.198Z,76.97
2018-12-03T00:53:30.648Z,75.87
2018-12-03T00:55:59.080Z,73.20
2018-12-03T00:58:27.591Z,73.87
2018-12-03T01:00:56.067Z,71.63
2018-12-03T01:03:24.667Z,73.03
2018-12-03T01:05:53.771Z,78.57
2018-12-03T01:08:22.215Z,72.27
2018-12-03T01:10:50.703Z,70.57
2018-12-03T01:13:19.132Z,72.67
2018-12-03T01:15:47.706Z,73.90
2018-12-03T01:18:16.216Z,72.17
2018-12-03T01:20:44.720Z,74.50
2018-12-03T01:23:13.212Z,71.73
2018-12-03T01:25:41.751Z,75.13
2018-12-03T01:28:10.252Z,76.53
2018-12-03T01:30:38.696Z,72.60
2018-12-03T01:33:07.208Z,76.27
2018-12-03T01:35:35.667Z,79.40
2018-12-03T01:38:04.307Z,76.90
2018-12-03T01:40:32.752Z,75.83
2018-12-03T01:43:01.215Z,77.23
2018-12-03T01:45:29.701Z,78.93
2018-12-03T01:47:58.207Z,78.37
2018-12-03T01:50:26.723Z,76.80
2018-12-03T01:52:55.258Z,76.97
2018-12-03T01:55:23.707Z,77.50
2018-12-03T01:57:52.197Z,72.83
2018-12-03T02:00:20.688Z,70.47
2018-12-03T02:02:50.226Z,73.23
2018-12-03T02:05:18.716Z,74.13
2018-12-03T02:07:47.168Z,72.97
2018-12-03T02:10:16.256Z,73.63
2018-12-03T02:12:44.788Z,73.77
2018-12-03T02:15:14.504Z,76.03
2018-12-03T02:17:43.641Z,72.40
2018-12-03T02:20:16.370Z,74.77
2018-12-03T02:22:44.918Z,75.67
2018-12-03T02:25:13.556Z,75.70
2018-12-03T02:27:42.058Z,74.50
2018-12-03T02:30:12.784Z,74.73
2018-12-03T02:32:41.600Z,74.27
2018-12-03T02:35:11.283Z,76.73
2018-12-03T02:37:39.991Z,76.77
2018-12-03T02:40:12.804Z,74.83
2018-12-03T02:42:41.311Z,72.40
2018-12-03T02:45:10.941Z,70.77
2018-12-03T02:47:39.698Z,79.83
2018-12-03T02:50:10.391Z,78.73
2018-12-03T02:52:38.956Z,75.93
2018-12-03T02:55:08.912Z,77.53
2018-12-03T02:57:37.431Z,75.83
2018-12-03T03:00:09.395Z,74.83
2018-12-03T03:02:37.863Z,73.93
2018-12-03T03:05:08.159Z,77.20
2018-12-03T03:07:36.656Z,77.33
2018-12-03T03:10:20.944Z,75.73
2018-12-03T03:12:49.423Z,72.00
2018-12-03T03:15:17.875Z,73.50
2018-12-03T03:17:46.348Z,72.13
2018-12-03T03:20:14.799Z,74.00
2018-12-03T03:22:43.286Z,72.37
2018-12-03T03:25:12.065Z,71.43
2018-12-03T03:27:40.617Z,73.53
2018-12-03T03:30:14.329Z,74.83
2018-12-03T03:32:43.411Z,75.20
2018-12-03T03:35:12.832Z,73.93
2018-12-03T03:37:41.361Z,73.10
2018-12-03T03:40:16.049Z,72.13
2018-12-03T03:42:46.100Z,78.73
2018-12-03T03:45:17.091Z,76.87
2018-12-03T03:47:45.850Z,79.43
2018-12-03T03:50:14.405Z,72.87
2018-12-03T03:52:42.856Z,71.17
2018-12-03T03:55:11.444Z,75.70
2018-12-03T03:57:39.880Z,71.47
2018-12-03T04:00:15.875Z,70.93
2018-12-03T04:02:44.391Z,74.87
2018-12-03T04:05:14.055Z,78.20
2018-12-03T04:07:44.583Z,73.37
2018-12-03T04:10:14.052Z,66.03
2018-12-03T04:12:43.396Z,71.63
2018-12-03T04:15:13.089Z,68.20
2018-12-03T04:17:41.687Z,70.27
2018-12-03T04:20:13.588Z,73.37
2018-12-03T04:22:42.253Z,73.27
2018-12-03T04:25:11.597Z,73.30
2018-12-03T04:27:40.078Z,74.13
2018-12-03T04:30:12.236Z,69.07
2018-12-03T04:32:40.979Z,72.53
2018-12-03T04:35:10.239Z,71.57
2018-12-03T04:37:38.815Z,70.73
2018-12-03T04:40:10.071Z,71.20
2018-12-03T04:42:38.576Z,76.57
2018-12-03T04:45:09.986Z,71.83
2018-12-03T04:47:38.468Z,73.90
2018-12-03T04:50:10.312Z,75.27
2018-12-03T04:52:38.912Z,77.27
2018-12-03T04:55:07.446Z,76.77
2018-12-03T04:57:35.928Z,80.47
2018-12-03T05:00:07.447Z,79.27
2018-12-03T05:02:35.934Z,79.87
2018-12-03T05:05:04.721Z,81.80
2018-12-03T05:07:33.237Z,77.53
2018-12-03T05:10:01.739Z,75.10
2018-12-03T05:12:30.218Z,76.50
2018-12-03T05:14:58.701Z,76.80
2018-12-03T05:19:32.017Z,79.27
2018-12-03T05:22:13.049Z,75.50
2018-12-03T05:24:54.313Z,75.97
2018-12-03T05:27:35.426Z,73.30
2018-12-03T05:30:17.017Z,73.90
2018-12-03T05:32:57.733Z,73.87
2018-12-03T05:35:38.202Z,75.13
2018-12-03T05:38:19.497Z,74.43
2018-12-03T05:41:00.641Z,77.23
2018-12-03T05:43:39.769Z,75.53
2018-12-03T05:49:27.500Z,78.17
2018-12-03T05:52:08.364Z,83.07
2018-12-03T05:54:48.849Z,77.37
2018-12-03T05:57:30.097Z,125.07
2018-12-03T06:00:11.201Z,97.20
2018-12-03T06:02:52.112Z,83.23
2018-12-03T06:05:33.248Z,83.53
2018-12-03T06:08:14.485Z,78.07
2018-12-03T06:10:55.625Z,77.47
2018-12-03T06:13:36.556Z,76.80
2018-12-03T06:16:16.932Z,76.63
2018-12-03T06:18:57.993Z,81.47
2018-12-03T06:21:38.441Z,75.73
2018-12-03T06:24:19.348Z,74.97
2018-12-03T06:27:00.085Z,79.53
2018-12-03T06:29:41.149Z,76.27
2018-12-03T06:32:23.389Z,80.80
2018-12-03T06:35:04.741Z,79.87
2018-12-03T06:37:45.634Z,74.87
2018-12-03T06:40:26.988Z,74.80
2018-12-03T06:43:07.446Z,73.30
2018-12-03T06:45:48.854Z,77.87
2018-12-03T06:48:29.649Z,80.63
2018-12-03T06:51:08.841Z,84.17
2018-12-03T06:56:41.667Z,85.83
2018-12-03T07:02:16.385Z,82.27
2018-12-03T07:04:55.424Z,79.30
2018-12-03T07:10:43.749Z,75.23
2018-12-03T07:13:24.713Z,78.50
2018-12-03T07:16:05.884Z,75.83
2018-12-03T07:18:47.205Z,75.20
2018-12-03T07:21:28.441Z,80.93
2018-12-03T07:24:09.653Z,81.70
2018-12-03T07:26:50.631Z,81.37
2018-12-03T07:29:31.741Z,74.40
2018-12-03T07:32:12.709Z,76.77
2018-12-03T07:34:53.204Z,81.53
2018-12-03T07:37:33.981Z,80.27
2018-12-03T07:40:14.828Z,85.00
2018-12-03T07:42:55.778Z,87.63
2018-12-03T07:45:36.829Z,89.40
2018-12-03T07:48:17.845Z,83.23
2018-12-03T07:50:58.885Z,85.70
2018-12-03T07:53:40.058Z,77.70
2018-12-03T07:56:21.057Z,79.03
2018-12-03T07:59:02.281Z,74.80
2018-12-03T08:01:42.966Z,76.77
2018-12-03T08:04:24.064Z,74.97
2018-12-03T08:07:05.353Z,72.67
2018-12-03T08:09:46.372Z,71.43
2018-12-03T08:12:26.806Z,76.47
2018-12-03T08:15:07.995Z,78.60
2018-12-03T08:17:48.784Z,79.47
2018-12-03T08:20:29.905Z,80.20
2018-12-03T08:23:10.750Z,74.67
2018-12-03T08:25:51.669Z,77.60
2018-12-03T08:28:32.721Z,78.60
2018-12-03T08:31:13.340Z,80.20
2018-12-03T08:33:54.585Z,80.63
2018-12-03T08:36:35.851Z,81.30
2018-12-03T08:39:16.977Z,79.43
2018-12-03T08:41:57.930Z,72.80
2018-12-03T08:44:39.000Z,69.87
2018-12-03T08:47:20.130Z,75.10
2018-12-03T08:50:01.420Z,74.60
2018-12-03T08:52:41.938Z,77.07
2018-12-03T08:55:23.341Z,76.10
2018-12-03T08:58:06.493Z,81.83
2018-12-03T09:00:46.990Z,85.70
2018-12-03T09:03:28.225Z,77.03
2018-12-03T09:06:09.022Z,82.93
2018-12-03T09:08:50.022Z,86.90
2018-12-03T09:11:30.826Z,83.03
2018-12-03T09:14:11.945Z,81.83
2018-12-03T09:16:52.425Z,73.00
2018-12-03T09:19:33.421Z,67.87
2018-12-03T09:22:14.697Z,72.70
2018-12-03T09:24:55.849Z,68.47
2018-12-03T09:27:34.965Z,71.93
2018-12-03T09:30:16.272Z,75.83
2018-12-03T09:32:57.520Z,72.77
2018-12-03T09:35:38.197Z,75.00
2018-12-03T09:38:19.127Z,71.57
2018-12-03T09:41:00.288Z,73.60
2018-12-03T09:43:41.469Z,68.20
2018-12-03T09:46:22.668Z,65.47
2018-12-03T09:49:03.402Z,66.07
2018-12-03T09:51:44.277Z,63.87
2018-12-03T09:54:25.438Z,63.40
2018-12-03T09:57:05.983Z,70.43
2018-12-03T09:59:46.577Z,67.53
2018-12-03T10:02:27.824Z,74.20
2018-12-03T10:05:08.837Z,71.80
2018-12-03T10:07:49.949Z,74.93
2018-12-03T10:10:31.173Z,71.13
2018-12-03T10:13:12.141Z,71.53
2018-12-03T10:15:53.207Z,65.73
2018-12-03T10:18:34.353Z,64.07
2018-12-03T10:21:15.741Z,62.07
2018-12-03T10:23:56.306Z,62.70
2018-12-03T10:26:36.715Z,64.70
2018-12-03T10:29:17.356Z,58.93
2018-12-03T10:31:58.163Z,53.37
2018-12-03T10:34:39.225Z,51.63
2018-12-03T10:37:20.434Z,52.43
2018-12-03T10:39:59.496Z,52.07
2018-12-03T10:42:40.050Z,49.77
2018-12-03T10:45:26.120Z,47.57
2018-12-03T10:48:03.685Z,47.50
2018-12-03T10:50:44.498Z,49.20
2018-12-03T10:53:25.775Z,47.43
2018-12-03T10:56:06.669Z,50.40
2018-12-03T10:58:47.549Z,52.27
2018-12-03T11:04:53.888Z,55.30
2018-12-03T11:07:35.054Z,51.50
2018-12-03T11:10:16.177Z,50.43
2018-12-03T11:12:56.589Z,50.23
2018-12-03T11:15:37.522Z,46.00
2018-12-03T11:18:18.819Z,42.30
2018-12-03T11:20:59.954Z,51.27
2018-12-03T11:23:40.433Z,49.23
2018-12-03T11:26:21.577Z,50.47
2018-12-03T11:29:02.562Z,57.17
2018-12-03T11:31:43.815Z,60.47
2018-12-03T11:34:24.933Z,59.37
2018-12-03T11:37:06.077Z,55.23
2018-12-03T11:40:06.382Z,51.30
2018-12-03T11:42:47.141Z,53.87
2018-12-03T11:45:28.072Z,55.07
2018-12-03T11:48:09.094Z,58.53
2018-12-03T11:50:50.033Z,56.80
2018-12-03T11:53:31.321Z,55.23
2018-12-03T11:56:12.276Z,57.43
2018-12-03T11:58:53.380Z,56.27
2018-12-03T12:01:34.645Z,53.80
2018-12-03T12:04:15.826Z,53.63
2018-12-03T12:06:57.130Z,50.47
2018-12-03T12:09:38.356Z,50.73
2018-12-03T12:12:19.231Z,49.00
2018-12-03T12:14:59.696Z,46.40
2018-12-03T12:17:41.022Z,45.47
2018-12-03T12:20:22.266Z,40.90
2018-12-03T12:23:03.397Z,33.53
2018-12-03T12:25:43.971Z,23.07
2018-12-03T12:28:25.025Z,19.13
2018-12-03T12:31:05.474Z,18.20
2018-12-03T12:33:44.797Z,19.30
2018-12-03T12:39:24.437Z,20.57
2018-12-03T12:42:05.290Z,24.73
2018-12-03T12:44:45.737Z,18.13
2018-12-03T12:47:27.089Z,17.33
2018-12-03T12:50:08.045Z,15.90
2018-12-03T12:52:49.269Z,15.10
2018-12-03T12:55:30.576Z,15.83
2018-12-03T12:58:11.189Z,18.37
2018-12-03T13:00:51.810Z,16.60
2018-12-03T13:03:32.638Z,17.50
2018-12-03T13:06:13.687Z,22.10
2018-12-03T13:08:54.658Z,18.73
2018-12-03T13:11:35.670Z,12.73
2018-12-03T13:14:14.898Z,11.77
2018-12-03T13:20:02.441Z,20.93
2018-12-03T13:22:42.997Z,24.20
2018-12-03T13:25:24.277Z,14.57
2018-12-03T13:28:05.437Z,9.67
2018-12-03T13:30:46.926Z,5.10
2018-12-03T13:33:28.034Z,3.40
2018-12-03T13:36:09.112Z,3.03
2018-12-03T13:38:49.694Z,4.50
2018-12-03T13:41:30.110Z,3.00
2018-12-03T13:44:11.259Z,3.07
2018-12-03T13:46:52.285Z,2.73
2018-12-03T13:49:32.706Z,3.77
2018-12-03T13:52:11.825Z,5.50
2018-12-03T13:54:52.445Z,3.60
2018-12-03T13:57:33.686Z,5.93
2018-12-03T14:00:14.517Z,4.23
2018-12-03T14:02:55.509Z,3.50
2018-12-03T14:05:36.689Z,3.57
2018-12-03T14:08:17.539Z,3.80
2018-12-03T14:10:58.489Z,3.83
2018-12-03T14:13:39.286Z,4.37
2018-12-03T14:16:19.689Z,4.63
2018-12-03T14:19:00.821Z,4.77
2018-12-03T14:21:41.656Z,5.47
2018-12-03T14:24:22.115Z,5.70
2018-12-03T14:27:02.933Z,5.83
2018-12-03T14:29:44.045Z,4.80
2018-12-03T14:32:23.121Z,4.37
2018-12-03T14:38:02.471Z,6.10
2018-12-03T14:40:43.577Z,7.87
2018-12-03T14:43:24.461Z,9.50
2018-12-03T14:46:05.537Z,8.00
2018-12-03T14:48:46.291Z,3.77
2018-12-03T14:51:27.449Z,3.63
2018-12-03T14:54:08.634Z,3.03
2018-12-03T14:56:49.953Z,3.17
2018-12-03T14:59:30.577Z,3.33
2018-12-03T15:02:11.633Z,3.20
2018-12-03T15:04:52.709Z,2.93
2018-12-03T15:07:33.157Z,3.17
2018-12-03T15:10:14.363Z,2.67
2018-12-03T15:12:55.621Z,2.60
2018-12-03T15:15:36.798Z,2.80
2018-12-03T15:18:17.937Z,4.13
2018-12-03T15:20:59.179Z,3.50
2018-12-03T15:23:39.941Z,3.10
2018-12-03T15:26:21.173Z,3.30
2018-12-03T15:29:02.352Z,5.40
2018-12-03T15:31:43.532Z,10.13
2018-12-03T15:34:24.557Z,5.17
2018-12-03T15:37:05.309Z,7.70
2018-12-03T15:39:46.473Z,7.30
2018-12-03T15:42:27.182Z,10.07
2018-12-03T15:45:08.408Z,7.67
2018-12-03T15:47:49.228Z,6.10
2018-12-03T15:50:29.612Z,5.37
2018-12-03T15:53:10.613Z,5.10
2018-12-03T15:55:51.576Z,7.27
2018-12-03T15:58:32.846Z,6.13
2018-12-03T16:01:14.503Z,5.60
2018-12-03T16:03:55.051Z,4.83
2018-12-03T16:06:36.369Z,5.13
2018-12-03T16:09:17.385Z,4.30
2018-12-03T16:11:58.557Z,6.10
2018-12-03T16:14:39.710Z,5.37
2018-12-03T16:17:20.702Z,4.87
2018-12-03T16:20:01.818Z,5.70
2018-12-03T16:22:43.046Z,4.97
2018-12-03T16:25:24.265Z,6.67
2018-12-03T16:28:05.219Z,6.07
2018-12-03T16:30:46.159Z,6.53
2018-12-03T16:33:26.941Z,6.73
2018-12-03T16:36:08.112Z,7.70
2018-12-03T16:38:49.366Z,6.93
2018-12-03T16:41:29.929Z,8.33
2018-12-03T16:44:10.942Z,7.47
2018-12-03T16:46:51.912Z,6.90
2018-12-03T16:49:33.096Z,8.70
2018-12-03T16:52:14.490Z,12.80
2018-12-03T16:54:55.701Z,13.10
2018-12-03T16:57:36.983Z,20.40
2018-12-03T17:00:17.910Z,33.13
2018-12-03T17:02:58.938Z,12.97
2018-12-03T17:05:39.881Z,15.07
2018-12-03T17:08:20.745Z,12.80
2018-12-03T17:11:02.110Z,8.63
2018-12-03T17:13:43.217Z,10.27
2018-12-03T17:16:24.261Z,9.60
2018-12-03T17:19:03.399Z,9.50
2018-12-03T17:21:44.198Z,9.67
2018-12-03T17:24:25.305Z,21.50
2018-12-03T17:27:06.431Z,25.90
2018-12-03T17:29:47.560Z,38.23
2018-12-03T17:32:28.697Z,42.73
2018-12-03T17:35:09.233Z,45.13
2018-12-03T17:37:50.139Z,45.07
2018-12-03T17:40:31.250Z,44.73
2018-12-03T17:43:11.785Z,45.67
2018-12-03T17:45:52.924Z,47.50
2018-12-03T17:48:33.521Z,48.80
2018-12-03T17:51:14.409Z,47.97
2018-12-03T17:53:55.549Z,49.43
2018-12-03T17:56:34.720Z,49.33
2018-12-03T17:59:15.954Z,50.23
2018-12-03T18:01:56.648Z,45.97
2018-12-03T18:04:37.192Z,53.80
2018-12-03T18:07:18.465Z,46.73
2018-12-03T18:09:59.562Z,47.33
2018-12-03T18:12:40.793Z,47.37
2018-12-03T18:15:21.792Z,45.60
2018-12-03T18:18:02.970Z,48.90
2018-12-03T18:20:44.129Z,49.07
2018-12-03T18:23:25.388Z,50.70
2018-12-03T18:26:06.157Z,50.00
2018-12-03T18:28:47.266Z,52.17
2018-12-03T18:31:28.153Z,49.87
2018-12-03T18:34:09.097Z,50.63
2018-12-03T18:36:50.118Z,50.23
2018-12-03T18:39:29.299Z,52.37
2018-12-03T18:45:17.389Z,50.70
2018-12-03T18:47:58.453Z,49.50
2018-12-03T18:50:39.725Z,48.87
2018-12-03T18:53:20.858Z,53.13
2018-12-03T18:56:02.197Z,53.53
2018-12-03T18:58:43.228Z,54.37
2018-12-03T19:01:24.237Z,55.37
2018-12-03T19:04:04.881Z,54.13
2018-12-03T19:06:45.924Z,54.63
2018-12-03T19:09:27.045Z,55.90
2018-12-03T19:12:06.192Z,50.70
2018-12-03T19:14:47.277Z,56.93
2018-12-03T19:17:27.902Z,59.23
2018-12-03T19:20:09.154Z,58.07
2018-12-03T19:22:49.501Z,58.00
2018-12-03T19:25:28.609Z,56.87
2018-12-03T19:31:16.233Z,57.97
2018-12-03T19:33:57.244Z,54.83
2018-12-03T19:36:37.649Z,51.40
2018-12-03T19:39:18.823Z,55.60
2018-12-03T19:41:59.917Z,57.03
2018-12-03T19:44:40.366Z,55.53
2018-12-03T19:47:20.934Z,53.93
2018-12-03T19:50:01.990Z,52.77
2018-12-03T19:52:43.453Z,51.20
2018-12-03T19:55:24.466Z,53.20
2018-12-03T19:58:05.516Z,56.73
2018-12-03T20:00:46.729Z,61.30
2018-12-03T20:03:28.466Z,66.60
2018-12-03T20:06:09.258Z,67.17
2018-12-03T20:08:49.834Z,66.00
2018-12-03T20:11:30.835Z,63.40
2018-12-03T20:14:11.905Z,66.53
2018-12-03T20:16:52.857Z,66.03
2018-12-03T20:19:32.014Z,74.63
2018-12-03T20:22:12.468Z,70.30
2018-12-03T20:24:52.893Z,64.77
2018-12-03T20:27:34.661Z,69.97
2018-12-03T20:30:15.206Z,74.27
2018-12-03T20:32:55.921Z,69.43
2018-12-03T20:35:37.146Z,74.43
2018-12-03T20:38:18.397Z,70.10
2018-12-03T20:40:59.589Z,67.27
2018-12-03T20:43:40.432Z,61.90
2018-12-03T20:46:21.460Z,65.43
2018-12-03T20:49:02.741Z,63.60
2018-12-03T20:51:43.997Z,58.80
2018-12-03T20:54:25.214Z,60.87
2018-12-03T20:57:05.894Z,57.80
2018-12-03T20:59:47.276Z,61.47
2018-12-03T21:02:28.621Z,62.07
2018-12-03T21:05:09.445Z,59.50
2018-12-03T21:07:49.905Z,62.83
2018-12-03T21:10:31.195Z,60.90
2018-12-03T21:13:12.106Z,61.23
2018-12-03T21:15:52.711Z,60.63
2018-12-03T21:18:33.921Z,61.77
2018-12-03T21:21:15.133Z,63.90
2018-12-03T21:23:56.085Z,64.37
2018-12-03T21:26:37.057Z,61.97
2018-12-03T21:29:17.566Z,65.90
2018-12-03T21:31:58.809Z,61.80
2018-12-03T21:34:40.056Z,61.90
2018-12-03T21:37:20.669Z,63.50
2018-12-03T21:39:59.750Z,63.00
2018-12-03T21:42:40.849Z,59.83
2018-12-03T21:45:21.941Z,61.80
2018-12-03T21:48:01.007Z,55.93
2018-12-03T21:53:48.801Z,59.30
2018-12-03T21:56:29.573Z,56.97
2018-12-03T21:59:10.776Z,55.17
2018-12-03T22:01:52.035Z,53.87
2018-12-03T22:04:32.824Z,54.03
2018-12-03T22:07:14.097Z,56.43
2018-12-03T22:09:54.930Z,56.47
2018-12-03T22:12:35.302Z,58.47
2018-12-03T22:15:16.325Z,66.57
2018-12-03T22:17:57.476Z,55.43
2018-12-03T22:20:38.745Z,57.67
2018-12-03T22:23:19.834Z,57.07
2018-12-03T22:26:00.961Z,55.50
2018-12-03T22:28:41.583Z,53.13
2018-12-03T22:31:22.776Z,49.90
2018-12-03T22:34:03.745Z,49.50
2018-12-03T22:36:44.880Z,51.20
2018-12-03T22:39:26.071Z,50.70
2018-12-03T22:42:07.050Z,50.77
2018-12-03T22:44:48.308Z,50.00
2018-12-03T22:47:29.521Z,51.17
2018-12-03T22:50:10.809Z,52.47
2018-12-03T22:52:51.462Z,53.97
2018-12-03T22:55:32.380Z,54.53
2018-12-03T22:58:13.051Z,55.17
2018-12-03T23:03:57.374Z,58.43
2018-12-03T23:06:38.769Z,66.57
2018-12-03T23:09:20.159Z,63.57
2018-12-03T23:12:01.205Z,67.70
2018-12-03T23:14:42.477Z,66.67
2018-12-03T23:17:23.345Z,70.27
2018-12-03T23:20:04.565Z,67.10
2018-12-03T23:22:45.092Z,67.40
2018-12-03T23:25:26.049Z,66.70
2018-12-03T23:28:07.085Z,60.47
2018-12-03T23:30:48.394Z,61.50
2018-12-03T23:33:29.581Z,63.37
2018-12-03T23:36:10.125Z,60.80
2018-12-03T23:38:51.122Z,58.60
2018-12-03T23:41:32.118Z,60.17
2018-12-03T23:44:12.626Z,59.77
2018-12-03T23:46:53.826Z,61.77
2018-12-03T23:49:34.197Z,64.07
2018-12-03T23:52:14.729Z,62.87
2018-12-03T23:54:55.490Z,62.87
2018-12-03T23:57:36.665Z,61.27
